Latest Weather Observations for PORTABLE RFSNSW58

IDN60801

Issued at 6:23 pm EST Saturday 9 May 2026 (issued every 10 minutes, with the page automatically refreshed every 10 minutes)

About weather observations | Map of weather stations | Latest weather observations for NSW | Other Formats
Station Details ID: 250151 Name: PORTABLE RFSNSW58 Lat: -34.08 Lon: 149.60 Height: 901.0 m

Portable automatic weather stations (PAWS) are operated by other organisations, such as Fire and Emergency Services, and are included here by agreement. Portable stations may be deployed to a location for a short period and their location may be subject to change without notice. Wind observations from these stations are provided from heights of either three (3) or ten (10) metres above ground level (AGL).

Data from the previous 72 hours. | See also: Recent months for locations in New South Wales
Date/Time
EST
Temp
°C
App
Temp
°C
Dew
Point
°C
Rel
Hum
%
Delta-T
°C
Wind Press
QNH
hPa
Press
MSL
hPa
Rain since
9am
mm
Dir  Spd
km/h
Gust
km/h
Spd
kts
Gust
kts
09/06:10pm 11.3 9.2 5.8 69 2.7 WSW 6 7 3 4 - - 0.0
09/06:00pm 11.5 9.5 6.2 70 2.6 SW 6 7 3 4 - - 0.0
09/05:50pm 11.9 10.3 6.4 69 2.7 SW 4 6 2 3 - - 0.0
09/05:40pm 12.3 10.7 6.5 67 2.9 SSW 4 6 2 3 - - 0.0
09/05:30pm 12.5 11.0 6.6 67 3.0 SW 4 6 2 3 - - 0.0
09/05:20pm 12.8 10.9 6.6 66 3.1 WSW 6 9 3 5 - - 0.0
09/05:10pm 13.5 11.7 7.0 65 3.3 SW 6 7 3 4 - - 0.0
09/05:00pm 14.0 12.0 7.0 62 3.6 SW 7 11 4 6 - - 0.0
09/04:50pm 14.6 12.3 7.4 62 3.7 W 9 11 5 6 - - 0.0
09/04:40pm 15.0 12.4 7.6 61 3.9 W 11 13 6 7 - - 0.0
09/04:30pm 15.5 12.8 7.4 58 4.2 W 11 13 6 7 - - 0.0
09/04:20pm 15.7 13.0 7.3 57 4.4 WNW 11 15 6 8 - - 0.0
09/04:10pm 15.9 12.8 7.1 56 4.6 W 13 15 7 8 - - 0.0
09/04:00pm 16.0 13.3 7.2 56 4.6 WNW 11 13 6 7 - - 0.0
09/03:50pm 16.0 13.3 7.2 56 4.6 WNW 11 13 6 7 - - 0.0
09/03:40pm 16.1 14.1 7.0 54 4.7 W 7 13 4 7 - - 0.0
09/03:30pm 16.2 13.7 6.5 52 5.0 W 9 13 5 7 - - 0.0
09/03:20pm 16.4 14.4 7.0 53 4.9 W 7 9 4 5 - - 0.0
09/03:10pm 16.3 13.8 6.5 52 5.0 WNW 9 11 5 6 - - 0.0
09/03:00pm 16.6 14.4 6.3 50 5.3 W 7 9 4 5 - - 0.0
09/02:50pm 16.6 14.4 6.1 50 5.4 W 7 9 4 5 - - 0.0
09/02:40pm 16.3 14.1 6.1 51 5.2 W 7 11 4 6 - - 0.0
09/02:30pm 16.3 14.4 6.5 52 5.0 WSW 6 7 3 4 - - 0.0
09/02:20pm 16.0 14.0 6.1 52 5.0 WSW 6 9 3 5 - - 0.0
09/02:10pm 15.9 13.2 5.8 51 5.1 W 9 13 5 7 - - 0.0
09/02:00pm 15.9 13.8 5.8 51 5.1 WSW 6 9 3 5 - - 0.0
09/01:50pm 15.7 13.0 5.7 51 5.0 WSW 9 11 5 6 - - 0.0
09/01:40pm 15.6 13.7 6.6 55 4.6 S 6 7 3 4 - - 0.0
09/01:30pm 15.4 13.3 5.9 53 4.8 SSW 6 9 3 5 - - 0.0
09/01:20pm 15.4 12.8 6.1 54 4.7 WSW 9 13 5 7 - - 0.0
09/01:10pm 15.1 13.0 5.7 53 4.7 SSW 6 9 3 5 - - 0.0
09/01:00pm 15.0 12.7 5.7 53 4.7 SW 7 9 4 5 - - 0.0
09/12:50pm 15.0 12.7 5.9 54 4.6 SW 7 11 4 6 - - 0.0
09/12:40pm 14.8 12.8 6.3 56 4.3 SW 6 9 3 5 - - 0.0
09/12:30pm 14.4 12.2 6.2 58 4.1 SSW 7 9 4 5 - - 0.0
09/12:20pm 14.3 11.7 6.3 58 4.0 SW 9 13 5 7 - - 0.0
09/12:10pm 13.9 11.5 6.8 62 3.6 SSW 9 11 5 6 - - 0.0
09/12:00pm 13.8 11.2 6.2 60 3.8 WSW 9 11 5 6 - - 0.0
09/11:50am 13.8 11.6 6.3 60 3.8 SSW 7 9 4 5 - - 0.0
09/11:40am 13.6 11.2 5.4 57 4.0 SW 7 11 4 6 - - 0.0
09/11:30am 13.4 11.3 6.5 63 3.5 SW 7 11 4 6 - - 0.0
09/11:20am 13.1 10.8 5.8 61 3.6 WSW 7 9 4 5 - - 0.0
09/11:10am 12.8 10.8 6.9 67 3.0 SW 7 7 4 4 - - 0.0
09/11:00am 12.7 10.7 7.1 69 2.8 SSW 7 7 4 4 - - 0.0
09/10:50am 12.2 10.6 8.0 75 2.2 S 6 7 3 4 - - 0.0
09/10:40am 12.3 10.4 7.6 73 2.4 S 7 7 4 4 - - 0.0
09/10:30am 12.4 10.7 7.7 73 2.4 S 6 6 3 3 - - 0.0
09/10:20am 12.0 10.7 7.7 75 2.2 SSW 4 6 2 3 - - 0.0
09/10:10am 11.2 10.0 7.9 80 1.7 S 4 6 2 3 - - 0.0
09/10:00am 10.7 9.1 8.0 83 1.4 SSW 6 7 3 4 - - 0.0
09/09:50am 11.3 9.9 7.3 76 2.0 E 4 6 2 3 - - 0.0
09/09:40am 10.5 9.1 7.3 80 1.6 SE 4 4 2 2 - - 0.0
09/09:30am 9.8 8.1 7.5 85 1.2 SSE 6 6 3 3 - - 0.0
09/09:20am 9.7 7.9 7.0 83 1.3 SE 6 6 3 3 - - 0.0
09/09:10am 10.2 8.3 6.6 78 1.8 E 6 7 3 4 - - 0.0
09/09:00am 10.0 8.5 6.6 79 1.7 NE 4 6 2 3 - - 0.0
09/08:50am 9.4 7.5 6.6 83 1.4 E 6 6 3 3 - - 0.0
09/08:40am 9.2 7.6 6.3 82 1.4 E 4 4 2 2 - - 0.0
09/08:30am 9.3 7.7 6.5 83 1.4 E 4 7 2 4 - - 0.0
09/08:20am 9.5 8.4 6.8 83 1.3 WNW 2 4 1 2 - - 0.0
09/08:10am 8.7 7.5 6.5 86 1.1 SSW 2 4 1 2 - - 0.0
09/08:00am 8.1 6.0 5.9 86 1.1 NNW 6 7 3 4 - - 0.0
09/07:50am 7.7 5.4 5.5 86 1.0 NNE 7 9 4 5 - - 0.0
09/07:40am 7.2 5.0 5.2 87 0.9 NNE 6 7 3 4 - - 0.0
09/07:30am 6.5 4.2 4.9 89 0.7 N 6 7 3 4 - - 0.0
09/07:20am 6.0 3.5 4.6 91 0.6 N 7 7 4 4 - - 0.0
09/07:10am 5.8 3.3 4.5 91 0.6 N 7 7 4 4 - - 0.0
09/07:00am 5.7 3.1 4.4 91 0.6 N 7 7 4 4 - - 0.0
09/06:50am 5.1 2.5 4.3 95 0.4 N 7 9 4 5 - - 0.0
09/06:40am 5.1 2.5 4.1 93 0.4 N 7 9 4 5 - - 0.0
09/06:30am 5.2 2.6 4.4 95 0.4 N 7 7 4 4 - - 0.0
09/06:20am 5.3 2.7 4.4 94 0.4 NNW 7 7 4 4 - - 0.0
09/06:10am 5.5 3.0 4.5 93 0.5 NNW 7 7 4 4 - - 0.0
09/06:00am 6.0 3.8 5.1 94 0.4 NNW 6 6 3 3 - - 0.0
09/05:50am 6.1 3.9 5.2 94 0.4 NNW 6 6 3 3 - - 0.0
09/05:40am 6.2 4.4 5.4 95 0.4 NNW 4 6 2 3 - - 0.0
09/05:30am 6.3 4.1 5.4 94 0.4 NNW 6 6 3 3 - - 0.0
09/05:20am 6.4 4.2 5.5 94 0.4 NNW 6 6 3 3 - - 0.0
09/05:10am 6.3 4.6 5.7 96 0.3 NNW 4 6 2 3 - - 0.0
09/05:00am 6.3 4.2 5.6 95 0.3 NNW 6 6 3 3 - - 0.0
09/04:50am 6.2 4.1 5.7 97 0.2 NNW 6 6 3 3 - - 0.0
09/04:40am 6.2 4.1 5.7 97 0.2 N 6 6 3 3 - - 0.0
09/04:30am 6.2 4.1 5.8 97 0.2 N 6 7 3 4 - - 0.0
09/04:20am 6.0 3.8 5.5 97 0.2 N 6 7 3 4 - - 0.0
09/04:10am 6.1 3.9 5.5 96 0.3 N 6 7 3 4 - - 0.0
09/04:00am 6.2 4.1 5.6 96 0.3 NNW 6 6 3 3 - - 0.0
09/03:50am 6.3 4.2 5.7 96 0.3 NNW 6 6 3 3 - - 0.0
09/03:40am 6.3 4.2 5.7 96 0.3 NNW 6 6 3 3 - - 0.0
09/03:30am 6.7 4.7 6.1 96 0.3 NNW 6 6 3 3 - - 0.0
09/03:20am 6.8 4.8 6.2 96 0.3 NNW 6 6 3 3 - - 0.0
09/03:10am 6.7 4.6 6.0 95 0.3 NW 6 6 3 3 - - 0.0
09/03:00am 6.8 4.8 6.1 95 0.3 NW 6 7 3 4 - - 0.0
09/02:50am 7.0 5.0 6.2 95 0.4 NW 6 7 3 4 - - 0.0
09/02:40am 7.1 5.1 6.3 95 0.4 WNW 6 7 3 4 - - 0.0
09/02:30am 7.2 5.0 6.4 95 0.4 WNW 7 9 4 5 - - 0.0
09/02:20am 7.4 5.3 6.6 95 0.4 WNW 7 9 4 5 - - 0.0
09/02:10am 7.7 5.6 6.6 93 0.5 NW 7 9 4 5 - - 0.0
09/02:00am 7.7 5.8 6.6 93 0.5 NW 6 7 3 4 - - 0.0
09/01:50am 7.7 5.8 6.6 93 0.5 NW 6 7 3 4 - - 0.0
09/01:40am 7.8 5.9 6.6 92 0.6 NW 6 6 3 3 - - 0.0
09/01:30am 7.8 6.2 6.3 90 0.7 NNW 4 6 2 3 - - 0.0
09/01:20am 7.8 5.8 6.4 91 0.7 NW 6 7 3 4 - - 0.0
09/01:10am 7.8 5.9 6.7 93 0.5 NW 6 6 3 3 - - 0.0
09/01:00am 7.8 5.9 6.5 91 0.6 NW 6 11 3 6 - - 0.0
09/12:50am 7.7 5.6 6.7 93 0.5 NW 7 11 4 6 - - 0.0
09/12:40am 7.6 5.7 6.9 95 0.3 NW 6 7 3 4 - - 0.0
09/12:30am 7.5 5.5 6.9 96 0.3 NW 7 9 4 5 - - 0.0
09/12:20am 7.5 5.5 6.9 96 0.3 NW 7 9 4 5 - - 0.0
09/12:10am 7.4 5.4 6.9 97 0.2 NW 7 9 4 5 - - 0.0
09/12:00am 7.5 4.7 6.9 96 0.3 WNW 11 13 6 7 - - 0.0
 
Date/Time
EST
Temp
°C
App
Temp
°C
Dew
Point
°C
Rel
Hum
%
Delta-T
°C
Wind Press
QNH
hPa
Press
MSL
hPa
Rain since
9am
mm
Dir  Spd
km/h
Gust
km/h
Spd
kts
Gust
kts
08/11:50pm 7.6 5.2 6.9 95 0.3 WNW 9 11 5 6 - - 0.0
08/11:40pm 7.7 5.3 7.0 95 0.3 WNW 9 11 5 6 - - 0.0
08/11:30pm 7.8 5.4 7.0 95 0.4 WNW 9 11 5 6 - - 0.0
08/11:20pm 7.8 5.4 6.9 94 0.4 WNW 9 11 5 6 - - 0.0
08/11:10pm 7.8 5.0 6.8 93 0.5 W 11 13 6 7 - - 0.0
08/11:00pm 7.8 5.0 6.9 94 0.4 W 11 13 6 7 - - 0.0
08/10:50pm 7.9 5.1 6.9 93 0.5 W 11 13 6 7 - - 0.0
08/10:40pm 8.0 5.2 6.8 92 0.6 W 11 15 6 8 - - 0.0
08/10:30pm 7.9 5.5 6.8 93 0.5 WNW 9 11 5 6 - - 0.0
08/10:20pm 7.9 5.5 6.9 93 0.5 WNW 9 13 5 7 - - 0.0
08/10:10pm 8.0 5.2 6.8 92 0.6 W 11 15 6 8 - - 0.0
08/10:00pm 7.9 5.5 6.8 93 0.5 W 9 11 5 6 - - 0.0
08/09:50pm 7.9 5.5 6.8 93 0.5 WNW 9 11 5 6 - - 0.0
08/09:40pm 8.0 5.1 6.7 91 0.6 W 11 15 6 8 - - 0.0
08/09:30pm 7.9 4.7 6.7 92 0.6 WNW 13 15 7 8 - - 0.0
08/09:20pm 8.0 4.8 6.7 91 0.6 W 13 15 7 8 - - 0.0
08/09:10pm 8.1 4.5 6.6 90 0.7 W 15 17 8 9 - - 0.0
08/09:00pm 8.0 4.4 6.6 91 0.7 W 15 17 8 9 - - 0.0
08/08:50pm 8.0 4.0 6.6 91 0.7 W 17 20 9 11 - - 0.0
08/08:40pm 7.9 3.3 6.6 91 0.6 W 20 24 11 13 - - 0.0
08/08:30pm 7.8 4.2 6.6 92 0.6 W 15 17 8 9 - - 0.0
08/08:20pm 7.7 4.1 6.7 93 0.5 W 15 17 8 9 - - 0.0
08/08:10pm 7.8 4.6 6.7 93 0.5 W 13 17 7 9 - - 0.0
08/08:00pm 7.9 4.2 6.5 91 0.7 W 15 17 8 9 - - 0.0
08/07:50pm 8.0 4.3 6.5 90 0.7 W 15 17 8 9 - - 0.0
08/07:40pm 8.1 4.4 6.4 89 0.8 W 15 19 8 10 - - 0.0
08/07:30pm 8.1 4.8 6.4 89 0.8 W 13 17 7 9 - - 0.0
08/07:20pm 8.1 4.4 6.4 89 0.8 W 15 19 8 10 - - 0.0
08/07:10pm 8.0 3.9 6.4 90 0.8 W 17 20 9 11 - - 0.0
08/07:00pm 8.0 4.7 6.5 90 0.7 W 13 15 7 8 - - 0.0
08/06:50pm 7.9 5.0 6.5 91 0.7 W 11 15 6 8 - - 0.0
08/06:40pm 7.9 3.9 6.5 91 0.7 W 17 20 9 11 - - 0.0
08/06:30pm 7.9 3.9 6.5 91 0.7 WSW 17 20 9 11 - - 0.0
08/06:20pm 7.9 3.9 6.5 91 0.7 WSW 17 19 9 10 - - 0.0
08/06:10pm 7.9 3.5 6.4 90 0.7 WSW 19 20 10 11 - - 0.0
08/06:00pm 7.9 3.3 6.4 90 0.7 W 20 24 11 13 - - 0.0
08/05:50pm 7.9 3.4 6.3 90 0.8 WSW 19 22 10 12 - - 0.0
08/05:40pm 7.9 3.4 6.2 89 0.8 WSW 19 20 10 11 - - 0.0
08/05:30pm 7.9 3.8 6.1 88 0.9 WSW 17 24 9 13 - - 0.0
08/05:20pm 7.8 3.3 6.0 88 0.9 WSW 19 24 10 13 - - 0.0
08/05:10pm 7.7 3.0 6.1 90 0.8 WSW 20 28 11 15 - - 0.0
08/05:00pm 7.7 1.5 6.1 90 0.8 WSW 28 32 15 17 - - 0.0
08/04:50pm 7.6 2.2 6.2 91 0.7 W 24 28 13 15 - - 0.0
08/04:40pm 7.7 2.6 6.2 90 0.7 W 22 24 12 13 - - 0.0
08/04:30pm 7.7 3.2 6.2 90 0.7 W 19 24 10 13 - - 0.0
08/04:20pm 7.5 1.7 6.3 92 0.6 W 26 30 14 16 - - 0.0
08/04:10pm 7.4 1.6 6.3 93 0.5 W 26 32 14 17 - - 0.0
08/04:00pm 7.5 1.7 6.4 93 0.5 W 26 28 14 15 - - 0.0
08/03:50pm 7.4 1.7 6.5 94 0.4 W 26 33 14 18 - - 0.0
08/03:40pm 7.4 0.9 6.3 93 0.5 WSW 30 35 16 19 - - 0.0
08/03:30pm 7.4 2.3 6.2 92 0.6 W 22 26 12 14 - - 0.0
08/03:20pm 7.4 2.7 6.0 91 0.7 W 20 22 11 12 - - 0.0
08/03:10pm 7.5 2.9 5.8 89 0.8 WSW 19 22 10 12 - - 0.0
08/03:00pm 7.5 1.6 5.8 89 0.8 W 26 37 14 20 - - 0.0
08/02:50pm 7.6 0.9 5.6 87 0.9 W 30 33 16 18 - - 0.0
08/02:40pm 7.3 2.1 5.6 89 0.8 W 22 30 12 16 - - 0.0
08/02:30pm 7.3 3.5 5.7 89 0.8 W 15 19 8 10 - - 0.0
08/02:20pm 7.3 1.4 5.7 89 0.8 W 26 32 14 17 - - 0.0
08/02:10pm 7.3 0.1 5.7 89 0.8 W 33 37 18 20 - - 0.0
08/02:00pm 7.4 0.7 5.6 88 0.9 W 30 33 16 18 - - 0.0
08/01:50pm 7.3 1.3 5.5 88 0.8 W 26 28 14 15 - - 0.0
08/01:40pm 7.2 1.7 5.7 90 0.7 W 24 30 13 16 - - 0.0
08/01:30pm 7.0 1.8 5.5 90 0.7 W 22 26 12 14 - - 0.0
08/01:20pm 6.6 1.4 5.4 92 0.6 W 22 24 12 13 - - 0.0
08/01:10pm 6.6 1.0 5.3 91 0.6 W 24 28 13 15 - - 0.0
08/01:00pm 6.6 1.4 5.4 92 0.6 W 22 26 12 14 - - 0.0
08/12:50pm 6.3 -0.1 5.3 93 0.5 W 28 32 15 17 - - 0.0
08/12:40pm 6.4 -0.4 5.3 93 0.5 W 30 33 16 18 - - 0.0
08/12:30pm 6.1 -0.2 5.5 96 0.3 W 28 30 15 16 - - 0.0
08/12:20pm 5.9 -0.5 5.4 97 0.2 W 28 32 15 17 - - 0.0
08/12:10pm 5.7 -0.3 5.3 97 0.2 W 26 30 14 16 - - 0.0
08/12:00pm 5.6 -0.4 5.2 97 0.2 W 26 30 14 16 - - 0.0
08/11:50am 5.5 -0.6 5.0 97 0.2 W 26 30 14 16 - - 0.0
08/11:40am 5.5 -0.2 5.1 97 0.2 W 24 28 13 15 - - 0.0
08/11:30am 5.4 0.1 5.0 97 0.2 W 22 28 12 15 - - 0.0
08/11:20am 5.3 0.0 4.9 97 0.2 W 22 22 12 12 - - 0.0
08/11:10am 5.1 0.3 4.8 98 0.1 W 19 22 10 12 - - 0.0
08/11:00am 5.0 -0.4 4.7 98 0.1 W 22 26 12 14 - - 0.0
08/10:50am 5.1 -0.3 4.7 97 0.2 W 22 26 12 14 - - 0.0
08/10:40am 5.1 -0.6 4.8 98 0.1 W 24 24 13 13 - - 0.0
08/10:30am 4.8 -0.6 4.5 98 0.1 W 22 26 12 14 - - 0.0
08/10:20am 4.7 -0.3 4.5 99 0.1 W 20 22 11 12 - - 0.0
08/10:10am 4.6 -0.8 4.3 98 0.1 W 22 28 12 15 - - 0.0
08/10:00am 4.4 -0.7 4.1 98 0.1 WNW 20 22 11 12 - - 0.0
08/09:50am 4.4 -0.5 4.2 99 0.1 W 19 20 10 11 - - 0.0
08/09:40am 4.2 -0.7 4.0 99 0.1 W 19 20 10 11 - - 0.0
08/09:30am 4.0 -0.6 3.7 98 0.1 W 17 19 9 10 - - 0.0
08/09:20am 3.9 -0.3 3.6 98 0.1 W 15 17 8 9 - - 0.0
08/09:10am 3.8 -0.5 3.4 97 0.2 W 15 20 8 11 - - 0.0
08/09:00am 3.7 -1.0 3.3 97 0.2 W 17 19 9 10 - - 0.0
08/08:50am 3.8 -1.3 3.3 97 0.2 W 19 22 10 12 - - 0.0
08/08:40am 3.7 -1.4 3.2 97 0.2 W 19 20 10 11 - - 0.0
08/08:30am 3.6 -1.1 3.0 96 0.3 WNW 17 22 9 12 - - 0.0
08/08:20am 3.6 -1.5 2.9 95 0.3 W 19 20 10 11 - - 0.0
08/08:10am 3.6 -1.7 2.8 94 0.3 W 20 22 11 12 - - 0.0
08/08:00am 3.6 -2.1 2.8 94 0.3 W 22 24 12 13 - - 0.0
08/07:50am 3.6 -1.7 2.8 94 0.3 WNW 20 24 11 13 - - 0.0
08/07:40am 3.6 -1.7 2.8 94 0.3 W 20 22 11 12 - - 0.0
08/07:30am 3.7 -1.5 2.7 93 0.4 WNW 19 20 10 11 - - 0.0
08/07:20am 3.7 -2.4 2.7 93 0.4 W 24 28 13 15 - - 0.0
08/07:10am 3.5 -2.3 2.5 93 0.4 W 22 26 12 14 - - 0.0
08/07:00am 3.5 -1.9 2.6 94 0.4 W 20 26 11 14 - - 0.0
08/06:50am 3.6 -3.3 2.5 92 0.5 W 28 35 15 19 - - 0.0
08/06:40am 3.5 -2.3 2.5 93 0.4 W 22 26 12 14 - - 0.0
08/06:30am 3.5 -1.9 2.6 94 0.4 W 20 26 11 14 - - 0.0
08/06:20am 3.5 -2.6 2.6 94 0.4 W 24 28 13 15 - - 0.0
08/06:10am 3.5 -2.2 2.6 94 0.4 W 22 24 12 13 - - 0.0
08/06:00am 3.6 -1.8 2.6 93 0.4 W 20 22 11 12 - - 0.0
08/05:50am 3.6 -2.2 2.4 92 0.5 W 22 24 12 13 - - 0.0
08/05:40am 3.6 -2.9 2.4 92 0.5 W 26 32 14 17 - - 0.0
08/05:30am 3.6 -3.0 2.3 91 0.5 W 26 32 14 17 - - 0.0
08/05:20am 3.6 -1.8 2.2 90 0.6 W 20 24 11 13 - - 0.0
08/05:10am 3.5 -2.3 2.1 90 0.6 W 22 26 12 14 - - 0.0
08/05:00am 3.5 -2.0 2.1 90 0.6 W 20 22 11 12 - - 0.0
08/04:50am 3.4 -2.5 2.0 90 0.6 W 22 28 12 15 - - 0.0
08/04:40am 3.5 -3.1 2.0 90 0.6 W 26 30 14 16 - - 0.0
08/04:30am 3.5 -3.1 2.0 90 0.6 W 26 33 14 18 - - 0.0
08/04:20am 3.4 -3.2 1.9 90 0.6 W 26 28 14 15 - - 0.0
08/04:10am 3.4 -2.9 1.8 89 0.7 W 24 30 13 16 - - 0.0
08/04:00am 3.3 -3.0 1.7 89 0.7 W 24 30 13 16 - - 0.0
08/03:50am 3.2 -2.3 1.6 89 0.7 W 20 22 11 12 - - 0.0
08/03:40am 3.2 -2.1 1.6 89 0.7 WNW 19 24 10 13 - - 0.0
08/03:30am 3.3 -2.3 1.5 88 0.7 WNW 20 22 11 12 - - 0.0
08/03:20am 3.4 -2.0 1.5 87 0.8 W 19 22 10 12 - - 0.0
08/03:10am 3.4 -2.5 1.4 87 0.8 W 22 26 12 14 - - 0.0
08/03:00am 3.6 -2.0 1.4 85 0.9 W 20 28 11 15 - - 0.0
08/02:50am 3.7 -1.9 1.2 84 1.0 W 20 26 11 14 - - 0.0
08/02:40am 3.7 -1.7 1.1 83 1.1 W 19 24 10 13 - - 0.0
08/02:30am 3.7 -1.4 1.0 82 1.1 W 17 24 9 13 - - 0.0
08/02:20am 3.7 -1.7 1.0 82 1.1 W 19 24 10 13 - - 0.0
08/02:10am 3.7 -3.5 0.8 81 1.2 W 28 32 15 17 - - 0.0
08/02:00am 3.7 -2.7 0.8 81 1.2 WSW 24 33 13 18 - - 0.0
08/01:50am 3.6 -4.4 0.7 81 1.2 W 32 37 17 20 - - 0.0
08/01:40am 3.6 -3.2 0.6 81 1.2 W 26 30 14 16 - - 0.0
08/01:30am 3.6 -2.5 0.7 81 1.2 WSW 22 28 12 15 - - 0.0
08/01:20am 3.7 -2.4 0.7 81 1.2 WSW 22 30 12 16 - - 0.0
08/01:10am 3.6 -2.9 0.6 81 1.2 WSW 24 33 13 18 - - 0.0
08/01:00am 3.6 -2.9 0.6 81 1.2 W 24 30 13 16 - - 0.0
08/12:50am 3.6 -3.6 0.7 81 1.2 W 28 30 15 16 - - 0.0
08/12:40am 3.5 -3.0 0.6 81 1.2 W 24 28 13 15 - - 0.0
08/12:30am 3.4 -3.4 0.7 82 1.1 W 26 30 14 16 - - 0.0
08/12:20am 3.4 -3.4 0.6 82 1.1 W 26 30 14 16 - - 0.0
08/12:10am 3.3 -2.8 0.6 82 1.1 W 22 28 12 15 - - 0.0
08/12:00am 3.3 -2.8 0.6 82 1.1 W 22 28 12 15 - - 0.0
 
Date/Time
EST
Temp
°C
App
Temp
°C
Dew
Point
°C
Rel
Hum
%
Delta-T
°C
Wind Press
QNH
hPa
Press
MSL
hPa
Rain since
9am
mm
Dir  Spd
km/h
Gust
km/h
Spd
kts
Gust
kts
07/11:50pm 3.2 -3.3 0.5 82 1.1 W 24 26 13 14 - - 0.0
07/11:40pm 3.2 -3.3 0.4 82 1.1 W 24 26 13 14 - - 0.0
07/11:30pm 3.1 -3.0 0.4 82 1.1 W 22 28 12 15 - - 0.0
07/11:20pm 3.1 -3.0 0.4 82 1.1 W 22 24 12 13 - - 0.0
07/11:10pm 3.0 -3.1 0.3 82 1.1 W 22 26 12 14 - - 0.0
07/11:00pm 3.0 -3.1 0.2 82 1.1 W 22 24 12 13 - - 0.0
07/10:50pm 3.0 -3.1 0.2 82 1.1 W 22 26 12 14 - - 0.0
07/10:40pm 3.0 -3.1 0.1 81 1.2 W 22 24 12 13 - - 0.0
07/10:30pm 3.0 -3.2 0.0 81 1.2 W 22 26 12 14 - - 0.0
07/10:20pm 3.0 -3.2 -0.1 80 1.2 WSW 22 24 12 13 - - 0.0
07/10:10pm 2.9 -4.1 -0.2 80 1.2 WSW 26 30 14 16 - - 0.0
07/10:00pm 2.6 -4.4 -0.5 80 1.2 WSW 26 35 14 19 - - 0.0
07/09:50pm 2.6 -4.4 -0.5 80 1.2 WSW 26 30 14 16 - - 0.0
07/09:40pm 2.6 -4.0 -0.7 79 1.3 W 24 30 13 16 - - 0.0
07/09:30pm 2.6 -3.7 -0.7 79 1.3 W 22 24 12 13 - - 0.0
07/09:20pm 2.6 -4.0 -0.7 79 1.3 W 24 26 13 14 - - 0.0
07/09:10pm 2.8 -3.8 -0.7 78 1.4 WSW 24 30 13 16 - - 0.0
07/09:00pm 2.8 -4.6 -0.7 78 1.4 WSW 28 32 15 17 - - 0.0
07/08:50pm 2.8 -5.0 -0.8 77 1.4 W 30 39 16 21 - - 0.0
07/08:40pm 2.9 -4.9 -0.9 76 1.5 W 30 33 16 18 - - 0.0
07/08:30pm 3.0 -4.4 -0.9 75 1.5 W 28 33 15 18 - - 0.0
07/08:20pm 3.0 -3.7 -0.8 76 1.5 WSW 24 30 13 16 - - 0.0
07/08:10pm 3.2 -2.7 -0.8 75 1.6 WSW 20 26 11 14 - - 0.0
07/08:00pm 3.3 -3.4 -0.9 74 1.6 WSW 24 30 13 16 - - 0.0
07/07:50pm 3.4 -3.3 -0.9 73 1.7 WSW 24 26 13 14 - - 0.0
07/07:40pm 3.4 -3.3 -1.2 72 1.8 WSW 24 26 13 14 - - 0.0
07/07:30pm 3.4 -3.7 -1.2 72 1.8 WSW 26 32 14 17 - - 0.0
07/07:20pm 3.5 -3.2 -1.2 71 1.8 WSW 24 32 13 17 - - 0.0
07/07:10pm 3.4 -3.3 -1.3 71 1.8 WSW 24 26 13 14 - - 0.0
07/07:00pm 3.4 -3.3 -1.4 71 1.8 WSW 24 30 13 16 - - 0.0
07/06:50pm 3.3 -2.7 -1.7 70 1.9 WSW 20 26 11 14 - - 0.0
07/06:40pm 3.4 -3.0 -1.7 69 1.9 WSW 22 28 12 15 - - 0.0
07/06:30pm 3.5 -3.7 -2.0 67 2.1 WSW 26 33 14 18 - - 0.0
07/06:20pm 3.5 -3.7 -1.9 68 2.0 WSW 26 30 14 16 - - 0.0
07/06:10pm 3.6 -3.6 -2.1 66 2.2 WSW 26 30 14 16 - - 0.0
07/06:00pm 3.7 -4.3 -2.1 66 2.2 WSW 30 33 16 18 - - 0.0
07/05:50pm 3.7 -4.7 -2.2 65 2.2 WSW 32 35 17 19 - - 0.0
07/05:40pm 3.8 -4.8 -2.3 64 2.3 WSW 33 41 18 22 - - 0.0
07/05:30pm 3.9 -4.5 -2.3 64 2.3 WSW 32 35 17 19 - - 0.0
07/05:20pm 4.0 -4.5 -2.1 64 2.3 WSW 33 41 18 22 - - 0.0
07/05:10pm 4.1 -3.5 -2.1 64 2.4 WSW 28 32 15 17 - - 0.0
07/05:00pm 4.2 -3.3 -1.7 65 2.3 WSW 28 32 15 17 - - 0.0
07/04:50pm 4.4 -3.2 -1.8 64 2.4 WSW 28 33 15 18 - - 0.0
07/04:40pm 4.7 -4.2 -1.9 62 2.5 WSW 35 46 19 25 - - 0.0
07/04:30pm 5.1 -3.8 -1.7 61 2.6 WSW 35 43 19 23 - - 0.0
07/04:20pm 5.5 -2.4 -1.2 62 2.6 WSW 30 35 16 19 - - 0.0
07/04:10pm 6.0 -2.9 -1.9 57 3.1 WSW 35 44 19 24 - - 0.0
07/04:00pm 6.0 -2.5 -1.5 58 3.0 WSW 33 41 18 22 - - 0.0
07/03:50pm 5.8 -2.5 -1.7 58 2.9 WSW 32 37 17 20 - - 0.0
07/03:40pm 5.4 -4.6 -1.7 60 2.8 WSW 41 44 22 24 - - 0.0
07/03:30pm 5.7 -2.7 -1.2 61 2.7 WSW 33 39 18 21 - - 0.0
07/03:20pm 6.5 -2.3 -1.4 57 3.1 WSW 35 41 19 22 - - 0.0
07/03:10pm 6.8 -1.7 -1.7 54 3.4 WSW 33 39 18 21 - - 0.0
07/03:00pm 6.2 -3.0 -1.1 59 2.9 WSW 37 43 20 23 - - 0.0
07/02:50pm 6.3 -2.9 -1.7 56 3.1 WSW 37 46 20 25 - - 0.0
07/02:40pm 5.9 -3.7 -1.8 58 3.0 WSW 39 44 21 24 - - 0.0
07/02:30pm 6.1 -3.5 -1.6 58 3.0 WSW 39 46 21 25 - - 0.0
07/02:20pm 6.4 -4.0 -2.1 54 3.3 WSW 43 52 23 28 - - 0.0
07/02:10pm 6.5 -3.5 -1.7 56 3.2 WSW 41 46 22 25 - - 0.0
07/02:00pm 6.8 -0.7 -1.3 56 3.2 WSW 28 37 15 20 - - 0.0
07/01:50pm 7.1 -1.3 -1.4 55 3.4 WSW 33 41 18 22 - - 0.0
07/01:40pm 6.4 -3.2 -1.8 56 3.2 WSW 39 50 21 27 - - 0.0
07/01:30pm 6.5 -4.1 -2.0 54 3.3 WSW 44 50 24 27 - - 0.0
07/01:20pm 6.4 -3.6 -2.0 55 3.3 WSW 41 48 22 26 - - 0.0
07/01:10pm 6.5 -3.5 -1.7 56 3.2 WSW 41 50 22 27 - - 0.0
07/01:00pm 5.6 -4.1 -2.6 55 3.1 WSW 39 48 21 26 - - 0.0
07/12:50pm 5.9 -2.6 -1.9 57 3.0 WSW 33 37 18 20 - - 0.0
07/12:40pm 5.2 -3.7 -2.1 59 2.8 WSW 35 41 19 22 - - 0.0
07/12:30pm 5.3 -4.4 -2.6 57 3.0 WSW 39 44 21 24 - - 0.0
07/12:20pm 5.8 -3.9 -2.2 56 3.1 WSW 39 41 21 22 - - 0.0
07/12:10pm 6.6 -0.5 -0.9 59 3.0 WSW 26 28 14 15 - - 0.0
07/12:00pm 5.3 -3.6 -1.7 60 2.7 WSW 35 44 19 24 - - 0.0
07/11:50am 5.4 -3.5 -2.0 59 2.9 WSW 35 43 19 23 - - 0.0
07/11:40am 6.3 -2.3 -2.3 54 3.3 W 33 41 18 22 - - 0.0
07/11:30am 6.3 -1.2 -1.3 58 3.0 W 28 32 15 17 - - 0.0
07/11:20am 5.9 -2.2 -0.5 63 2.6 W 32 37 17 20 - - 0.0
07/11:10am 5.7 -1.4 -1.2 61 2.7 WSW 26 35 14 19 - - 0.0
07/11:00am 5.8 -2.3 -0.6 63 2.6 WSW 32 35 17 19 - - 0.0
07/10:50am 5.7 -1.7 -1.0 62 2.7 WSW 28 33 15 18 - - 0.0
07/10:40am 4.8 -3.1 -1.8 62 2.5 WSW 30 35 16 19 - - 0.0
07/10:30am 5.2 -2.0 -2.1 59 2.8 WSW 26 37 14 20 - - 0.0
07/10:20am 5.1 -3.3 -0.8 65 2.3 WSW 33 41 18 22 - - 0.0
07/10:10am 5.0 -3.9 -1.9 61 2.7 WSW 35 43 19 23 - - 0.0
07/10:00am 5.4 -2.1 -1.6 60 2.7 WSW 28 35 15 19 - - 0.0
07/09:50am 5.4 -1.7 -1.2 62 2.6 W 26 32 14 17 - - 0.0
07/09:40am 5.4 -1.1 0.5 71 2.0 W 24 26 13 14 - - 0.0
07/09:30am 4.9 -1.8 1.2 77 1.5 W 26 30 14 16 - - 0.0
07/09:20am 4.4 -2.2 1.8 83 1.1 WSW 26 33 14 18 - - 0.0
07/09:10am 3.8 -3.7 1.3 84 1.0 WSW 30 35 16 19 - - 0.0
07/09:00am 3.8 -3.9 2.2 89 0.7 WSW 32 35 17 19 - - 0.6
07/08:50am 3.8 -3.1 2.7 92 0.5 WSW 28 33 15 18 - - 0.6
07/08:40am 3.8 -2.7 2.9 94 0.4 WSW 26 32 14 17 - - 0.6
07/08:30am 3.9 -2.9 3.0 94 0.4 WSW 28 33 15 18 - - 0.6
07/08:20am 4.9 -3.1 3.7 92 0.5 WSW 35 43 19 23 - - 0.6
07/08:10am 6.1 -0.2 5.8 98 0.1 W 28 33 15 18 - - 0.4
07/08:00am 6.2 -0.1 5.9 98 0.1 W 28 32 15 17 - - 0.4
07/07:50am 6.3 -0.9 5.9 97 0.2 W 33 35 18 19 - - 0.4
07/07:40am 6.3 -0.9 5.9 97 0.2 W 33 37 18 20 - - 0.2
07/07:30am 6.3 -0.7 6.0 98 0.1 W 32 41 17 22 - - 0.2
07/07:20am 6.2 -0.4 5.9 98 0.1 W 30 35 16 19 - - 0.2
07/07:10am 6.2 -1.0 5.9 98 0.1 W 33 39 18 21 - - 0.2
07/07:00am 6.1 -0.5 5.9 99 0.1 W 30 37 16 20 - - 0.2
07/06:50am 6.1 -0.9 5.8 98 0.1 W 32 37 17 20 - - 0.2
07/06:40am 6.1 -0.9 5.8 98 0.1 W 32 35 17 19 - - 0.0
07/06:30am 6.1 -1.0 5.7 97 0.2 W 32 35 17 19 - - 0.0
07/06:20am 6.1 -0.6 5.5 96 0.3 W 30 35 16 19 - - 0.0
07/06:10am 6.1 -1.0 5.4 95 0.3 W 32 33 17 18 - - 0.0
07/06:00am 6.4 -1.0 5.2 92 0.6 W 33 37 18 20 - - 0.0
07/05:50am 6.8 -0.6 4.9 88 0.9 W 33 39 18 21 - - 0.0
07/05:40am 6.9 0.0 4.4 84 1.1 W 30 33 16 18 - - 0.0
07/05:30am 6.9 -0.1 4.2 83 1.2 W 30 33 16 18 - - 0.0
07/05:20am 6.9 0.3 4.1 82 1.3 W 28 32 15 17 - - 0.0
07/05:10am 6.9 1.1 4.2 83 1.2 W 24 28 13 15 - - 0.0
07/05:00am 6.9 0.3 4.0 82 1.3 W 28 30 15 16 - - 0.0
07/04:50am 6.9 1.0 4.0 82 1.3 W 24 26 13 14 - - 0.0
07/04:40am 6.9 2.0 4.0 82 1.3 WNW 19 26 10 14 - - 0.0
07/04:30am 6.9 2.4 4.0 82 1.3 WNW 17 19 9 10 - - 0.0
07/04:20am 6.8 2.3 4.0 82 1.3 WNW 17 19 9 10 - - 0.0
07/04:10am 6.8 2.2 3.9 82 1.3 WNW 17 20 9 11 - - 0.0
07/04:00am 6.9 1.8 3.9 81 1.4 W 20 22 11 12 - - 0.0
07/03:50am 6.8 1.7 3.9 82 1.3 W 20 22 11 12 - - 0.0
07/03:40am 6.8 1.6 3.8 81 1.4 W 20 22 11 12 - - 0.0
07/03:30am 6.8 1.3 3.8 81 1.4 W 22 26 12 14 - - 0.0
07/03:20am 6.8 1.3 4.0 82 1.3 W 22 24 12 13 - - 0.0
07/03:10am 6.8 1.3 3.9 82 1.3 W 22 26 12 14 - - 0.0
07/03:00am 6.7 0.8 3.8 82 1.3 W 24 26 13 14 - - 0.0
07/02:50am 6.7 0.4 4.0 83 1.2 W 26 30 14 16 - - 0.0
07/02:40am 6.7 1.3 4.5 86 1.0 W 22 26 12 14 - - 0.0
07/02:30am 6.8 1.3 4.0 82 1.3 W 22 28 12 15 - - 0.0
07/02:20am 6.8 0.9 3.9 82 1.3 W 24 28 13 15 - - 0.0
07/02:10am 6.9 1.5 4.4 84 1.1 W 22 26 12 14 - - 0.0
07/02:00am 7.0 1.6 4.4 83 1.2 W 22 24 12 13 - - 0.0
07/01:50am 7.0 2.2 4.7 85 1.1 W 19 20 10 11 - - 0.0
07/01:40am 7.0 2.0 4.8 86 1.0 W 20 30 11 16 - - 0.0
07/01:30am 7.0 2.0 4.8 86 1.0 W 20 24 11 13 - - 0.0
07/01:20am 7.0 2.1 4.9 86 1.0 W 20 24 11 13 - - 0.0
07/01:10am 7.0 2.1 4.9 86 1.0 W 20 26 11 14 - - 0.0
07/01:00am 7.0 2.1 5.2 88 0.8 W 20 26 11 14 - - 0.0
07/12:50am 7.1 2.2 5.2 88 0.9 W 20 24 11 13 - - 0.0
07/12:40am 7.1 2.4 5.2 88 0.9 W 19 24 10 13 - - 0.0
07/12:30am 7.2 1.9 5.2 87 0.9 W 22 26 12 14 - - 0.0
07/12:20am 7.3 2.1 5.3 87 0.9 W 22 24 12 13 - - 0.0
07/12:10am 7.4 3.1 5.4 87 0.9 W 17 20 9 11 - - 0.0
07/12:00am 7.5 2.6 5.3 86 1.0 W 20 26 11 14 - - 0.0
 
Date/Time
EST
Temp
°C
App
Temp
°C
Dew
Point
°C
Rel
Hum
%
Delta-T
°C
Wind Press
QNH
hPa
Press
MSL
hPa
Rain since
9am
mm
Dir  Spd
km/h
Gust
km/h
Spd
kts
Gust
kts
06/11:50pm 7.6 3.0 5.5 86 1.0 W 19 24 10 13 - - 0.0
06/11:40pm 7.5 3.3 5.6 88 0.9 W 17 20 9 11 - - 0.0
06/11:30pm 7.6 3.8 5.7 88 0.9 W 15 17 8 9 - - 0.0
06/11:20pm 7.7 3.9 5.8 88 0.9 W 15 17 8 9 - - 0.0
06/11:10pm 7.8 4.4 6.0 88 0.9 W 13 17 7 9 - - 0.0
06/11:00pm 8.0 4.3 6.1 88 0.9 W 15 19 8 10 - - 0.0
06/10:50pm 8.0 3.9 6.0 87 1.0 W 17 19 9 10 - - 0.0
06/10:40pm 8.1 3.6 6.0 87 1.0 W 19 20 10 11 - - 0.0
06/10:30pm 8.2 4.5 6.3 88 0.9 W 15 17 8 9 - - 0.0
06/10:20pm 8.3 4.2 6.4 88 0.9 WSW 17 20 9 11 - - 0.0
06/10:10pm 8.2 4.1 6.4 88 0.9 W 17 19 9 10 - - 0.0
06/10:00pm 8.2 4.5 6.3 88 0.9 W 15 17 8 9 - - 0.0
06/09:50pm 8.4 4.3 6.4 87 1.0 W 17 19 9 10 - - 0.0
06/09:40pm 8.8 4.8 6.5 85 1.1 W 17 20 9 11 - - 0.0
06/09:30pm 8.8 5.1 6.5 85 1.1 W 15 17 8 9 - - 0.0
06/09:20pm 8.7 5.1 6.7 87 1.0 W 15 15 8 8 - - 0.0
06/09:10pm 8.8 5.5 6.6 86 1.1 W 13 15 7 8 - - 0.0
06/09:00pm 9.1 5.5 6.7 85 1.2 W 15 17 8 9 - - 0.0
06/08:50pm 9.2 5.6 6.7 84 1.2 W 15 17 8 9 - - 0.0
06/08:40pm 9.3 5.7 6.7 84 1.3 W 15 17 8 9 - - 0.0
06/08:30pm 9.1 5.8 6.6 84 1.2 W 13 15 7 8 - - 0.0
06/08:20pm 8.9 6.0 6.3 84 1.3 W 11 13 6 7 - - 0.0
06/08:10pm 9.1 5.8 6.5 84 1.3 W 13 17 7 9 - - 0.0
06/08:00pm 9.2 5.9 6.4 83 1.4 W 13 15 7 8 - - 0.0
06/07:50pm 9.1 6.1 5.9 80 1.5 W 11 13 6 7 - - 0.0
06/07:40pm 9.2 6.5 5.7 79 1.7 W 9 11 5 6 - - 0.0
06/07:30pm 9.7 6.6 5.7 76 1.9 W 11 11 6 6 - - 0.0
06/07:20pm 9.9 6.8 5.6 74 2.1 WNW 11 11 6 6 - - 0.0
06/07:10pm 10.0 6.9 5.6 74 2.1 W 11 13 6 7 - - 0.0
06/07:00pm 10.1 6.6 5.5 73 2.2 W 13 15 7 8 - - 0.0
06/06:50pm 10.4 6.5 5.4 71 2.4 W 15 17 8 9 - - 0.0
06/06:40pm 10.5 6.6 5.2 70 2.5 W 15 17 8 9 - - 0.0
06/06:30pm 10.5 6.9 5.2 70 2.5 W 13 15 7 8 - - 0.0

Other formats

Comma delimited format used in spreadsheet applications
http://www.bom.gov.au/fwo/IDN60801/IDN60801.99825.axf

JavaScript Object Notation format (JSON) in row-major order
http://www.bom.gov.au/fwo/IDN60801/IDN60801.99825.json

Data quality

Most of these data are generated automatically and are frequently updated. Quality checks on data are not normally performed. It is possible for incorrect values to appear. Refer to information at About Latest Weather Observations and please check the disclaimer before using these data.